Aeropuerto de La Coruña, España

12:15 AM CEST en Agosto 31, 2014 (GMT +0200)
A Coruna | Change Station
CLOSE
Current Station
Aeropuerto
Location: La Coruna Airport,
Altura: 338 ft
Estaciones meteorológicas cercanas

Alt 338 ft 43.31 °N, 8.37 °W | Updated 15 minutes ago

Clear
Despejado
68 ° F
Sensación térmica 68 ° F
N
0
Viento Variable Viento desde Norte

Hoy
Alta -- | Baja -- ° F
--% Posibilidad de precipitaciones
Ayer
Alta -- | Baja -- ° F
Precip. -- pul
7:56 AM 9:10 PM
Creciente, 25% visible
Presión 30.09 pul
Visibilidad -9999.0 Millas
Nubes
Punto de rocío 59 ° F
Humedad 73%
Precipitaciones 0.00 pul
Espesor de la nieve No disponible.
UV No disponible.
Polen No disponible.
Calidad del aire No disponible.
Flu Activity No disponible.
METAR LECO 302200Z 00000KT CAVOK 20/15 Q1019 NOSIG

More Conditions Fewer Conditions

Presión 30.09 pul
Visibilidad -9999.0 Millas
Nubes
Punto de rocío 59 ° F
Humedad 73%
Precipitaciones 0.00 pul
Espesor de la nieve No disponible.
UV No disponible.
Polen No disponible.
Calidad del aire No disponible.
Flu Activity No disponible.
METAR LECO 302200Z 00000KT CAVOK 20/15 Q1019 NOSIG

More Conditions Fewer Conditions

10-Day Weather Forecast

Almanac

Astronomía

Aug. 31, 2014 Salida Puesta
Hora real 7:56 AM CEST 9:10 PM CEST
Crepúsculo civil 7:26 AM CEST 9:40 PM CEST
Crepúsculo náutico 6:51 AM CEST 10:15 PM CEST
Crepúsculo astronómico 6:14 AM CEST 10:52 PM CEST
Luna 1:39 PM CEST (8/31) Sin puesta de luna
Horas de luz 14h 13m
Horas de luz
13h 14m
Tomorrow will be 2m 49s shorter.
Creciente, 25% of the Moon is Illuminated
Ago 30
Creciente
Sep 2
Cuarto creciente
Sep 8
Luna llena
Sep 15
Cuarto menguante
Sep 24
Nueva

Extremos de ayer

Máximos del país Bajas del país

Community

WunderPhotos

Upload Photos

1,748,657 ¡fotos cargadas!

WunderBlogs® & News

Nearby

Calidad del aire

Not available.

Grosos de nieve

Not available.

Actividad de terremotos

Ciudad Distance Mag. Tiempo y dato
No hay informes recientes de la actividad sísmica.
Magnitud mínima muestra es 2,5.

Temperaturas de aguas costeras

Lugar Temperatura
Sin partes meteorológicos de las estaciones

Estaciones meteorológicas cercanas